Aeroporto :
LOGIN :

Iscrizione | Disclaimer

   EN    FR    IT 

 










Sommario :    VFR   VFR Marginale   IFR   IFR Intensivo   IFR Molto Intensivo
Visibilità : 
Base nubi : 
>= 8 km
>= 3000ft
5 / 8 km
1000 / 3000 ft
1500m / 5 km
500 / 1000 ft
800 / 1500m
200 / 500 ft
< 800m
< 200 ft
Simboli :   Temporali  Nebbia  Neve Forte  Precipitazioni Forti  Vento > 20 kt
SIGMETs :   Varie  Temporali  Ghiacco  Turbolenza  Onda orograficha  Ceneri Vulcaniche







- Altitudine del aeroporto : 295 ft
- Codice IATA : BWE


EDVE - Braunschweig

ULTIMO METAR :
  • 191720Z 08012KT 040V110 9999 SCT016 BKN020 OVC067 04/00 Q1020

METARs OBSOLETI :
  • 191650Z 08010KT 9999 FEW015 SCT044 BKN068 03/00 Q1020
  • 191620Z 08010KT 030V110 9999 FEW023 SCT029 BKN036 03/00 Q1020
  • 191550Z 08012KT 9999 FEW040 BKN068 03/M00 Q1020
  • 191520Z 07010KT 020V100 9999 FEW013 BKN024 OVC037 04/01 Q1020
  • 191450Z 07010KT 020V100 9999 -RA FEW023 SCT029 BKN067 04/00 Q1020

TAF TAF EDVE
Valido dal 19 a 18 ore il 19 a 21 ore UTC


191700Z 1918/1921 09011KT 9999 SCT025
PROB30
TEMPO 1918/1921 10015G25KT
Nessun NOTAM noto per questo aeroporto.



MetMap, La meteo Aeronautica in un colpo d'occhio ! - Copyright ORBIFLY Dicembre 2007 - Disclaimer

ORBIFLY MET'MAP TEAM :

Programmazione e sviluppo : Alexandra Zaïnal
Concezione e sviluppo : Baudouin d'Aumeries
Co-Programmazione e sviluppo : Marc-Olivier Méhu
Supporto tecnico e logistico : Manuel Goepfert
Aiuto per la traduzione : Arnaldo La Scala

Contatto : metmap@orbifly.com




FONTI E CREDITI :

   NOAA